Terminal Aerodrome Forecast
Issued by NWS Wichita, KS

Home | Current Version | Previous Version | Graphics & Text | Print | Product List | Glossary On
Versions: 1 2 3 4 5 6 7 8 9 10 11 12 13 14 15 16 17
364
FTUS43 KICT 212320
TAFICT
TAF
KICT 212320Z 2200/2224 26007KT P6SM BKN120
     FM220400 VRB03KT P6SM SCT120 BKN200
     FM221500 VRB06KT P6SM VCSH OVC080
     FM221800 22007KT P6SM BKN070=

USA.gov is the U.S. government's official web portal to all federal, state and local government web resources and services.